WMT906 EPWA-LIPZ
Flight info
| Callsign | WMT906 |
|---|---|
| Flight time | 1h 41m |
| Altitude | 36000 |
| Route | EVINA Z175 SKARY DCT MAREG DCT RADLY DCT RIFEN DCT BADOP P125 TULIK Z71 BASOG |
| Aircraft | A321/M-SDE1E2E3FGIJ1J4RWXY/LB1 |
Departure
| Time | 2026-05-07 13:14 |
|---|---|
| Airport | Warsaw Chopin Airport (EPWA) |
Arrival
| Time | 2026-05-07 14:55 |
|---|---|
| Airport | Venice Marco Polo Airport (LIPZ) |
| Time | Latitude | Longitude | Altitude | Speed | Heading |
|---|---|---|---|---|---|
| 2026-05-07 12:10 | 52.17276 | 20.96600 | 339 ft | 0 kts | 207° |
| 2026-05-07 13:07 | 52.17275 | 20.96599 | 339 ft | 1 kts | 207° |
| 2026-05-07 13:08 | 52.17263 | 20.96588 | 317 ft | 5 kts | 207° |
| 2026-05-07 13:08 | 52.17207 | 20.96559 | 338 ft | 10 kts | 166° |
| 2026-05-07 13:08 | 52.17153 | 20.96602 | 337 ft | 12 kts | 153° |
| 2026-05-07 13:09 | 52.17094 | 20.96652 | 336 ft | 12 kts | 153° |
| 2026-05-07 13:09 | 52.17013 | 20.96722 | 339 ft | 14 kts | 149° |
| 2026-05-07 13:09 | 52.16927 | 20.96803 | 337 ft | 15 kts | 152° |
| 2026-05-07 13:09 | 52.16834 | 20.96885 | 336 ft | 16 kts | 152° |
| 2026-05-07 13:10 | 52.16733 | 20.96973 | 337 ft | 17 kts | 151° |
| 2026-05-07 13:10 | 52.16626 | 20.97066 | 336 ft | 18 kts | 153° |
| 2026-05-07 13:10 | 52.16509 | 20.97163 | 336 ft | 19 kts | 152° |
| 2026-05-07 13:10 | 52.16416 | 20.97278 | 336 ft | 14 kts | 115° |
| 2026-05-07 13:11 | 52.16372 | 20.97429 | 334 ft | 17 kts | 115° |
| 2026-05-07 13:11 | 52.16320 | 20.97613 | 337 ft | 19 kts | 112° |
| 2026-05-07 13:11 | 52.16269 | 20.97809 | 335 ft | 19 kts | 112° |
| 2026-05-07 13:11 | 52.16214 | 20.98013 | 334 ft | 20 kts | 117° |
| 2026-05-07 13:12 | 52.16149 | 20.98221 | 336 ft | 21 kts | 116° |
| 2026-05-07 13:12 | 52.16103 | 20.98322 | 334 ft | 5 kts | 167° |
| 2026-05-07 13:12 | 52.16104 | 20.98340 | 334 ft | 1 kts | 44° |
| 2026-05-07 13:12 | 52.16124 | 20.98316 | 332 ft | 7 kts | 309° |
| 2026-05-07 13:13 | 52.16130 | 20.98298 | 337 ft | 0 kts | 295° |
| 2026-05-07 13:13 | 52.16143 | 20.98251 | 336 ft | 23 kts | 295° |
| 2026-05-07 13:13 | 52.16317 | 20.97629 | 335 ft | 96 kts | 294° |
| 2026-05-07 13:14 | 52.16681 | 20.96333 | 355 ft | 152 kts | 294° |
| 2026-05-07 13:14 | 52.17140 | 20.94738 | 1002 ft | 150 kts | 296° |
| 2026-05-07 13:14 | 52.17570 | 20.93212 | 1762 ft | 151 kts | 297° |
| 2026-05-07 13:14 | 52.18028 | 20.91587 | 2193 ft | 164 kts | 295° |
| 2026-05-07 13:15 | 52.18477 | 20.89810 | 2652 ft | 176 kts | 285° |
| 2026-05-07 13:15 | 52.18480 | 20.87717 | 2945 ft | 201 kts | 258° |
| 2026-05-07 13:15 | 52.18422 | 20.87290 | 2997 ft | 206 kts | 256° |
| 2026-05-07 13:15 | 52.18001 | 20.84897 | 3339 ft | 230 kts | 253° |
| 2026-05-07 13:16 | 52.17503 | 20.82288 | 3771 ft | 249 kts | 253° |
| 2026-05-07 13:16 | 52.17010 | 20.79547 | 4523 ft | 254 kts | 254° |
| 2026-05-07 13:16 | 52.16310 | 20.76868 | 5311 ft | 257 kts | 234° |
| 2026-05-07 13:16 | 52.15004 | 20.74947 | 6094 ft | 261 kts | 210° |
| 2026-05-07 13:17 | 52.13294 | 20.73903 | 6860 ft | 264 kts | 200° |
| 2026-05-07 13:17 | 52.11534 | 20.72995 | 7627 ft | 266 kts | 200° |
| 2026-05-07 13:17 | 52.09766 | 20.72094 | 8406 ft | 268 kts | 200° |
| 2026-05-07 13:17 | 52.07976 | 20.71181 | 9167 ft | 271 kts | 200° |
| 2026-05-07 13:18 | 52.06171 | 20.70254 | 9926 ft | 273 kts | 200° |
| 2026-05-07 13:18 | 52.04318 | 20.69300 | 10332 ft | 289 kts | 200° |
| 2026-05-07 13:18 | 52.02326 | 20.68271 | 10470 ft | 312 kts | 200° |
| 2026-05-07 13:18 | 52.00183 | 20.67164 | 10642 ft | 332 kts | 199° |
| 2026-05-07 13:19 | 51.97949 | 20.66014 | 11174 ft | 339 kts | 199° |
| 2026-05-07 13:19 | 51.95688 | 20.64853 | 11847 ft | 342 kts | 199° |
| 2026-05-07 13:19 | 51.93413 | 20.63692 | 12558 ft | 344 kts | 199° |
| 2026-05-07 13:19 | 51.91126 | 20.62523 | 13270 ft | 346 kts | 199° |
| 2026-05-07 13:20 | 51.88816 | 20.61339 | 13935 ft | 349 kts | 199° |
| 2026-05-07 13:20 | 51.86492 | 20.60149 | 14537 ft | 352 kts | 199° |
| 2026-05-07 13:20 | 51.84940 | 20.59355 | 14934 ft | 354 kts | 199° |
| 2026-05-07 13:20 | 51.82583 | 20.58150 | 15531 ft | 357 kts | 199° |
| 2026-05-07 13:21 | 51.80198 | 20.56932 | 16138 ft | 361 kts | 199° |
| 2026-05-07 13:21 | 51.77797 | 20.55707 | 16734 ft | 364 kts | 199° |
| 2026-05-07 13:21 | 51.75375 | 20.54472 | 17320 ft | 367 kts | 199° |
| 2026-05-07 13:21 | 51.72924 | 20.53224 | 17901 ft | 371 kts | 199° |
| 2026-05-07 13:22 | 51.70447 | 20.51963 | 18438 ft | 374 kts | 199° |
| 2026-05-07 13:22 | 51.67955 | 20.50694 | 18983 ft | 377 kts | 199° |
| 2026-05-07 13:22 | 51.65447 | 20.49423 | 19527 ft | 379 kts | 199° |
| 2026-05-07 13:22 | 51.62927 | 20.48153 | 20069 ft | 381 kts | 199° |
| 2026-05-07 13:23 | 51.60394 | 20.46879 | 20610 ft | 383 kts | 199° |
| 2026-05-07 13:23 | 51.57845 | 20.45597 | 21135 ft | 384 kts | 199° |
| 2026-05-07 13:23 | 51.55288 | 20.44306 | 21646 ft | 386 kts | 199° |
| 2026-05-07 13:23 | 51.52721 | 20.43013 | 22135 ft | 388 kts | 199° |
| 2026-05-07 13:24 | 51.50140 | 20.41715 | 22622 ft | 390 kts | 199° |
| 2026-05-07 13:24 | 51.47549 | 20.40410 | 23098 ft | 392 kts | 199° |
| 2026-05-07 13:24 | 51.44959 | 20.39106 | 23554 ft | 394 kts | 199° |
| 2026-05-07 13:24 | 51.42365 | 20.37805 | 23948 ft | 395 kts | 199° |
| 2026-05-07 13:25 | 51.39733 | 20.36486 | 24352 ft | 397 kts | 199° |
| 2026-05-07 13:25 | 51.37184 | 20.34840 | 24742 ft | 397 kts | 205° |
| 2026-05-07 13:25 | 51.34670 | 20.32961 | 25145 ft | 398 kts | 205° |
| 2026-05-07 13:25 | 51.32160 | 20.31084 | 25546 ft | 400 kts | 205° |
| 2026-05-07 13:26 | 51.29639 | 20.29206 | 25938 ft | 401 kts | 205° |
| 2026-05-07 13:26 | 51.27101 | 20.27320 | 26329 ft | 402 kts | 205° |
| 2026-05-07 13:26 | 51.24554 | 20.25436 | 26707 ft | 404 kts | 205° |
| 2026-05-07 13:26 | 51.22003 | 20.23551 | 27061 ft | 405 kts | 205° |
| 2026-05-07 13:27 | 51.19433 | 20.21653 | 27415 ft | 407 kts | 205° |
| 2026-05-07 13:27 | 51.16860 | 20.19756 | 27768 ft | 409 kts | 205° |
| 2026-05-07 13:27 | 51.14272 | 20.17848 | 28131 ft | 410 kts | 205° |
| 2026-05-07 13:27 | 51.11680 | 20.15937 | 28498 ft | 412 kts | 204° |
| 2026-05-07 13:28 | 51.09072 | 20.14019 | 28854 ft | 413 kts | 204° |
| 2026-05-07 13:28 | 51.06462 | 20.12103 | 29256 ft | 413 kts | 204° |
| 2026-05-07 13:28 | 51.03862 | 20.10199 | 29762 ft | 411 kts | 204° |
| 2026-05-07 13:28 | 51.01298 | 20.08325 | 30225 ft | 409 kts | 204° |
| 2026-05-07 13:29 | 50.98717 | 20.06439 | 30626 ft | 408 kts | 204° |
| 2026-05-07 13:29 | 50.96138 | 20.04556 | 31011 ft | 407 kts | 204° |
| 2026-05-07 13:29 | 50.93571 | 20.02684 | 31395 ft | 406 kts | 204° |
| 2026-05-07 13:29 | 50.91011 | 20.00817 | 31779 ft | 405 kts | 204° |
| 2026-05-07 13:30 | 50.88454 | 19.98958 | 32163 ft | 404 kts | 204° |
| 2026-05-07 13:30 | 50.85906 | 19.97111 | 32551 ft | 403 kts | 204° |
| 2026-05-07 13:30 | 50.83363 | 19.95270 | 32923 ft | 402 kts | 204° |
| 2026-05-07 13:30 | 50.80827 | 19.93434 | 33306 ft | 401 kts | 205° |
| 2026-05-07 13:31 | 50.78295 | 19.91595 | 33654 ft | 400 kts | 205° |
| 2026-05-07 13:31 | 50.75767 | 19.89758 | 33989 ft | 400 kts | 205° |
| 2026-05-07 13:31 | 50.73239 | 19.87928 | 34280 ft | 399 kts | 205° |
| 2026-05-07 13:31 | 50.70715 | 19.86107 | 34551 ft | 400 kts | 205° |
| 2026-05-07 13:32 | 50.68184 | 19.84286 | 34813 ft | 400 kts | 205° |
| 2026-05-07 13:32 | 50.65645 | 19.82461 | 35076 ft | 400 kts | 205° |
| 2026-05-07 13:32 | 50.63116 | 19.80645 | 35332 ft | 401 kts | 205° |
| 2026-05-07 13:32 | 50.60577 | 19.78823 | 35588 ft | 401 kts | 205° |
| 2026-05-07 13:33 | 50.58036 | 19.77001 | 35836 ft | 401 kts | 205° |
| 2026-05-07 13:33 | 50.55491 | 19.75175 | 36060 ft | 402 kts | 205° |
| 2026-05-07 13:33 | 50.52945 | 19.73347 | 36286 ft | 403 kts | 205° |
| 2026-05-07 13:33 | 50.50387 | 19.71517 | 36516 ft | 403 kts | 205° |
| 2026-05-07 13:34 | 50.47834 | 19.69699 | 36736 ft | 404 kts | 205° |
| 2026-05-07 13:34 | 50.42724 | 19.66062 | 37154 ft | 404 kts | 205° |
| 2026-05-07 13:34 | 50.40160 | 19.64235 | 37343 ft | 405 kts | 205° |
| 2026-05-07 13:35 | 50.37594 | 19.62410 | 37544 ft | 405 kts | 205° |
| 2026-05-07 13:35 | 50.35024 | 19.60587 | 37710 ft | 406 kts | 205° |
| 2026-05-07 13:35 | 50.32454 | 19.58766 | 37884 ft | 406 kts | 205° |
| 2026-05-07 13:36 | 50.27289 | 19.55105 | 37931 ft | 408 kts | 205° |
| 2026-05-07 13:36 | 50.22144 | 19.51473 | 37931 ft | 408 kts | 205° |
| 2026-05-07 13:37 | 50.16963 | 19.47827 | 37933 ft | 408 kts | 205° |
| 2026-05-07 13:37 | 50.11788 | 19.44188 | 37934 ft | 408 kts | 205° |
| 2026-05-07 13:38 | 50.06614 | 19.40563 | 37941 ft | 408 kts | 205° |
| 2026-05-07 13:38 | 50.01433 | 19.36938 | 37947 ft | 408 kts | 205° |
| 2026-05-07 13:39 | 49.96245 | 19.33316 | 37967 ft | 409 kts | 205° |
| 2026-05-07 13:39 | 49.91052 | 19.29703 | 37963 ft | 409 kts | 205° |
| 2026-05-07 13:40 | 49.85856 | 19.26104 | 37961 ft | 409 kts | 205° |
| 2026-05-07 13:40 | 49.80658 | 19.22507 | 37973 ft | 409 kts | 205° |
| 2026-05-07 13:41 | 49.75459 | 19.18913 | 37980 ft | 409 kts | 205° |
| 2026-05-07 13:41 | 49.70262 | 19.15324 | 37976 ft | 409 kts | 205° |
| 2026-05-07 13:42 | 49.65062 | 19.11752 | 37973 ft | 409 kts | 205° |
| 2026-05-07 13:42 | 49.59870 | 19.08191 | 37971 ft | 409 kts | 205° |
| 2026-05-07 13:43 | 49.54676 | 19.04628 | 37980 ft | 409 kts | 205° |
| 2026-05-07 13:43 | 49.49481 | 19.01080 | 37980 ft | 408 kts | 205° |
| 2026-05-07 13:44 | 49.44497 | 18.97060 | 37986 ft | 407 kts | 217° |
| 2026-05-07 13:44 | 49.40455 | 18.90975 | 37982 ft | 408 kts | 226° |
| 2026-05-07 13:45 | 49.36605 | 18.84572 | 37984 ft | 408 kts | 226° |
| 2026-05-07 13:45 | 49.32737 | 18.78186 | 37975 ft | 408 kts | 226° |
| 2026-05-07 13:46 | 49.28866 | 18.71813 | 37990 ft | 408 kts | 226° |
| 2026-05-07 13:46 | 49.24990 | 18.65449 | 37993 ft | 408 kts | 226° |
| 2026-05-07 13:47 | 49.21116 | 18.59091 | 37975 ft | 409 kts | 226° |
| 2026-05-07 13:47 | 49.17240 | 18.52734 | 37972 ft | 409 kts | 225° |
| 2026-05-07 13:48 | 49.13353 | 18.46386 | 37976 ft | 409 kts | 226° |
| 2026-05-07 13:48 | 49.09464 | 18.40050 | 37979 ft | 409 kts | 226° |
| 2026-05-07 13:49 | 49.05568 | 18.33712 | 37972 ft | 410 kts | 225° |
| 2026-05-07 13:49 | 49.01671 | 18.27381 | 37970 ft | 410 kts | 225° |
| 2026-05-07 13:50 | 48.97758 | 18.21048 | 37971 ft | 411 kts | 225° |
| 2026-05-07 13:50 | 48.93834 | 18.14724 | 37957 ft | 412 kts | 225° |
| 2026-05-07 13:51 | 48.89891 | 18.08382 | 37969 ft | 413 kts | 225° |
| 2026-05-07 13:51 | 48.85944 | 18.02038 | 37977 ft | 413 kts | 225° |
| 2026-05-07 13:52 | 48.81987 | 17.95704 | 37981 ft | 414 kts | 225° |
| 2026-05-07 13:52 | 48.78022 | 17.89374 | 37984 ft | 414 kts | 225° |
| 2026-05-07 13:53 | 48.74056 | 17.83050 | 38003 ft | 414 kts | 225° |
| 2026-05-07 13:53 | 48.70082 | 17.76728 | 37975 ft | 414 kts | 225° |
| 2026-05-07 13:54 | 48.66106 | 17.70407 | 37976 ft | 414 kts | 225° |
| 2026-05-07 13:54 | 48.62123 | 17.64108 | 37977 ft | 414 kts | 225° |
| 2026-05-07 13:55 | 48.58163 | 17.57864 | 38007 ft | 414 kts | 225° |
| 2026-05-07 13:55 | 48.54185 | 17.51585 | 37986 ft | 414 kts | 225° |
| 2026-05-07 13:56 | 48.50196 | 17.45316 | 37981 ft | 414 kts | 225° |
| 2026-05-07 13:56 | 48.46200 | 17.39075 | 37979 ft | 414 kts | 225° |
| 2026-05-07 13:57 | 48.42207 | 17.32834 | 37974 ft | 414 kts | 225° |
| 2026-05-07 13:57 | 48.38220 | 17.26599 | 37978 ft | 413 kts | 225° |
| 2026-05-07 13:58 | 48.34238 | 17.20399 | 37976 ft | 414 kts | 225° |
| 2026-05-07 13:58 | 48.30237 | 17.14184 | 37983 ft | 414 kts | 225° |
| 2026-05-07 13:59 | 48.26234 | 17.07989 | 37998 ft | 414 kts | 225° |
| 2026-05-07 13:59 | 48.22221 | 17.01806 | 37984 ft | 413 kts | 225° |
| 2026-05-07 14:00 | 48.18110 | 16.95791 | 37980 ft | 413 kts | 218° |
| 2026-05-07 14:00 | 48.13598 | 16.90453 | 37984 ft | 413 kts | 218° |
| 2026-05-07 14:01 | 48.09080 | 16.85132 | 37989 ft | 413 kts | 218° |
| 2026-05-07 14:01 | 48.04558 | 16.79813 | 37989 ft | 414 kts | 218° |
| 2026-05-07 14:02 | 48.00035 | 16.74486 | 37994 ft | 414 kts | 218° |
| 2026-05-07 14:02 | 47.95505 | 16.69182 | 37995 ft | 414 kts | 218° |
| 2026-05-07 14:03 | 47.90968 | 16.63890 | 37995 ft | 414 kts | 218° |
| 2026-05-07 14:03 | 47.86438 | 16.58608 | 37987 ft | 414 kts | 218° |
| 2026-05-07 14:04 | 47.81910 | 16.53331 | 37988 ft | 413 kts | 218° |
| 2026-05-07 14:04 | 47.77381 | 16.48069 | 37989 ft | 413 kts | 218° |
| 2026-05-07 14:05 | 47.72849 | 16.42822 | 37991 ft | 413 kts | 218° |
| 2026-05-07 14:05 | 47.69076 | 16.38473 | 37990 ft | 413 kts | 218° |
| 2026-05-07 14:06 | 47.64540 | 16.33244 | 37987 ft | 413 kts | 218° |
| 2026-05-07 14:06 | 47.60004 | 16.28019 | 37991 ft | 413 kts | 218° |
| 2026-05-07 14:07 | 47.55462 | 16.22805 | 37984 ft | 413 kts | 218° |
| 2026-05-07 14:07 | 47.50919 | 16.17595 | 37983 ft | 413 kts | 218° |
| 2026-05-07 14:08 | 47.46381 | 16.12391 | 37999 ft | 413 kts | 218° |
| 2026-05-07 14:08 | 47.41835 | 16.07205 | 37976 ft | 413 kts | 218° |
| 2026-05-07 14:09 | 47.37288 | 16.02041 | 37985 ft | 412 kts | 218° |
| 2026-05-07 14:09 | 47.32746 | 15.96886 | 37970 ft | 412 kts | 218° |
| 2026-05-07 14:10 | 47.28200 | 15.91732 | 37993 ft | 412 kts | 218° |
| 2026-05-07 14:10 | 47.23650 | 15.86580 | 37972 ft | 413 kts | 218° |
| 2026-05-07 14:11 | 47.19127 | 15.81470 | 37969 ft | 413 kts | 218° |
| 2026-05-07 14:11 | 47.14564 | 15.76335 | 37963 ft | 413 kts | 218° |
| 2026-05-07 14:12 | 47.09995 | 15.71205 | 37939 ft | 414 kts | 219° |
| 2026-05-07 14:12 | 47.05424 | 15.66080 | 37936 ft | 414 kts | 219° |
| 2026-05-07 14:13 | 47.00849 | 15.60960 | 37941 ft | 414 kts | 218° |
| 2026-05-07 14:13 | 46.96336 | 15.55926 | 37942 ft | 414 kts | 218° |
| 2026-05-07 14:14 | 46.91692 | 15.50766 | 37938 ft | 415 kts | 219° |
| 2026-05-07 14:14 | 46.87092 | 15.45654 | 37933 ft | 415 kts | 219° |
| 2026-05-07 14:15 | 46.82491 | 15.40554 | 37931 ft | 415 kts | 219° |
| 2026-05-07 14:15 | 46.77886 | 15.35464 | 37937 ft | 415 kts | 219° |
| 2026-05-07 14:16 | 46.73283 | 15.30374 | 37943 ft | 415 kts | 219° |
| 2026-05-07 14:16 | 46.68675 | 15.25303 | 37948 ft | 415 kts | 219° |
| 2026-05-07 14:17 | 46.64296 | 15.19873 | 37934 ft | 413 kts | 230° |
| 2026-05-07 14:17 | 46.60949 | 15.13110 | 37943 ft | 412 kts | 235° |
| 2026-05-07 14:18 | 46.57696 | 15.06305 | 37955 ft | 412 kts | 235° |
| 2026-05-07 14:18 | 46.54409 | 14.99484 | 37951 ft | 412 kts | 235° |
| 2026-05-07 14:19 | 46.51122 | 14.92666 | 37951 ft | 412 kts | 235° |
| 2026-05-07 14:19 | 46.47838 | 14.85843 | 37953 ft | 412 kts | 235° |
| 2026-05-07 14:20 | 46.44547 | 14.79030 | 37957 ft | 412 kts | 235° |
| 2026-05-07 14:20 | 46.41252 | 14.72239 | 37962 ft | 412 kts | 235° |
| 2026-05-07 14:21 | 46.37946 | 14.65457 | 37974 ft | 412 kts | 235° |
| 2026-05-07 14:21 | 46.34644 | 14.58683 | 37975 ft | 412 kts | 235° |
| 2026-05-07 14:22 | 46.31342 | 14.51905 | 37977 ft | 412 kts | 235° |
| 2026-05-07 14:22 | 46.28027 | 14.45143 | 37981 ft | 412 kts | 235° |
| 2026-05-07 14:23 | 46.24714 | 14.38416 | 37963 ft | 412 kts | 235° |
| 2026-05-07 14:23 | 46.21398 | 14.31686 | 37979 ft | 411 kts | 235° |
| 2026-05-07 14:24 | 46.18089 | 14.24968 | 37968 ft | 410 kts | 235° |
| 2026-05-07 14:24 | 46.14785 | 14.18272 | 37984 ft | 411 kts | 235° |
| 2026-05-07 14:25 | 46.11464 | 14.11576 | 37987 ft | 411 kts | 235° |
| 2026-05-07 14:25 | 46.08142 | 14.04887 | 37993 ft | 410 kts | 235° |
| 2026-05-07 14:26 | 46.04817 | 13.98216 | 38008 ft | 410 kts | 235° |
| 2026-05-07 14:26 | 46.01516 | 13.91597 | 38005 ft | 410 kts | 235° |
| 2026-05-07 14:27 | 45.98185 | 13.84936 | 38009 ft | 410 kts | 235° |
| 2026-05-07 14:27 | 45.94845 | 13.78282 | 37986 ft | 410 kts | 235° |
| 2026-05-07 14:27 | 45.93164 | 13.74943 | 37313 ft | 415 kts | 235° |
| 2026-05-07 14:28 | 45.91479 | 13.71603 | 36842 ft | 411 kts | 235° |
| 2026-05-07 14:28 | 45.89825 | 13.68326 | 36373 ft | 407 kts | 235° |
| 2026-05-07 14:28 | 45.88162 | 13.65031 | 35859 ft | 405 kts | 235° |
| 2026-05-07 14:28 | 45.86465 | 13.61814 | 35305 ft | 405 kts | 231° |
| 2026-05-07 14:29 | 45.84619 | 13.58788 | 34183 ft | 406 kts | 230° |
| 2026-05-07 14:29 | 45.82719 | 13.55785 | 32501 ft | 408 kts | 229° |
| 2026-05-07 14:29 | 45.80783 | 13.52795 | 30868 ft | 409 kts | 229° |
| 2026-05-07 14:29 | 45.78875 | 13.49876 | 30139 ft | 391 kts | 229° |
| 2026-05-07 14:30 | 45.77067 | 13.47111 | 29417 ft | 371 kts | 229° |
| 2026-05-07 14:30 | 45.75328 | 13.44434 | 28668 ft | 369 kts | 230° |
| 2026-05-07 14:30 | 45.73588 | 13.41734 | 28069 ft | 371 kts | 230° |
| 2026-05-07 14:30 | 45.71868 | 13.39055 | 27588 ft | 370 kts | 230° |
| 2026-05-07 14:31 | 45.70133 | 13.36354 | 27096 ft | 367 kts | 230° |
| 2026-05-07 14:31 | 45.68410 | 13.33671 | 26583 ft | 365 kts | 230° |
| 2026-05-07 14:31 | 45.66700 | 13.31006 | 26087 ft | 363 kts | 230° |
| 2026-05-07 14:31 | 45.64998 | 13.28356 | 25579 ft | 361 kts | 230° |
| 2026-05-07 14:32 | 45.63300 | 13.25721 | 25084 ft | 359 kts | 230° |
| 2026-05-07 14:32 | 45.61611 | 13.23111 | 24586 ft | 357 kts | 230° |
| 2026-05-07 14:32 | 45.59925 | 13.20512 | 24066 ft | 355 kts | 230° |
| 2026-05-07 14:32 | 45.58253 | 13.17935 | 23586 ft | 352 kts | 229° |
| 2026-05-07 14:33 | 45.56595 | 13.15379 | 23049 ft | 350 kts | 230° |
| 2026-05-07 14:33 | 45.55021 | 13.12741 | 22621 ft | 351 kts | 238° |
| 2026-05-07 14:33 | 45.53710 | 13.09701 | 22350 ft | 365 kts | 239° |
| 2026-05-07 14:33 | 45.52374 | 13.06596 | 22067 ft | 369 kts | 239° |
| 2026-05-07 14:34 | 45.51028 | 13.03479 | 21825 ft | 370 kts | 239° |
| 2026-05-07 14:34 | 45.49676 | 13.00354 | 21550 ft | 369 kts | 239° |
| 2026-05-07 14:34 | 45.48349 | 12.97283 | 21287 ft | 369 kts | 239° |
| 2026-05-07 14:34 | 45.47007 | 12.94169 | 21031 ft | 369 kts | 239° |
| 2026-05-07 14:35 | 45.45669 | 12.91058 | 20784 ft | 368 kts | 240° |
| 2026-05-07 14:35 | 45.44327 | 12.87930 | 20523 ft | 371 kts | 240° |
| 2026-05-07 14:35 | 45.42980 | 12.84799 | 20252 ft | 370 kts | 240° |
| 2026-05-07 14:35 | 45.41637 | 12.81690 | 20005 ft | 369 kts | 240° |
| 2026-05-07 14:36 | 45.40291 | 12.78579 | 19760 ft | 368 kts | 240° |
| 2026-05-07 14:36 | 45.38951 | 12.75486 | 19513 ft | 368 kts | 240° |
| 2026-05-07 14:36 | 45.37601 | 12.72379 | 19268 ft | 368 kts | 240° |
| 2026-05-07 14:36 | 45.36255 | 12.69288 | 19026 ft | 367 kts | 240° |
| 2026-05-07 14:37 | 45.34909 | 12.66198 | 18782 ft | 367 kts | 240° |
| 2026-05-07 14:37 | 45.32227 | 12.60042 | 18309 ft | 366 kts | 240° |
| 2026-05-07 14:37 | 45.30882 | 12.56962 | 18046 ft | 366 kts | 240° |
| 2026-05-07 14:38 | 45.29547 | 12.53901 | 17776 ft | 365 kts | 240° |
| 2026-05-07 14:38 | 45.28213 | 12.50844 | 17490 ft | 364 kts | 240° |
| 2026-05-07 14:38 | 45.26880 | 12.47794 | 17218 ft | 361 kts | 240° |
| 2026-05-07 14:38 | 45.25570 | 12.44804 | 16798 ft | 354 kts | 240° |
| 2026-05-07 14:39 | 45.24276 | 12.41860 | 16323 ft | 349 kts | 240° |
| 2026-05-07 14:39 | 45.23001 | 12.38960 | 15847 ft | 344 kts | 240° |
| 2026-05-07 14:39 | 45.21740 | 12.36095 | 15368 ft | 341 kts | 239° |
| 2026-05-07 14:39 | 45.20481 | 12.33238 | 14887 ft | 342 kts | 239° |
| 2026-05-07 14:40 | 45.19216 | 12.30375 | 14398 ft | 344 kts | 239° |
| 2026-05-07 14:40 | 45.17951 | 12.27502 | 13898 ft | 342 kts | 239° |
| 2026-05-07 14:40 | 45.16776 | 12.24601 | 13287 ft | 333 kts | 249° |
| 2026-05-07 14:40 | 45.16256 | 12.21618 | 13101 ft | 300 kts | 266° |
| 2026-05-07 14:41 | 45.16357 | 12.18822 | 13010 ft | 276 kts | 281° |
| 2026-05-07 14:41 | 45.16957 | 12.16246 | 12300 ft | 284 kts | 295° |
| 2026-05-07 14:41 | 45.18122 | 12.13940 | 11109 ft | 297 kts | 314° |
| 2026-05-07 14:41 | 45.19802 | 12.12233 | 10327 ft | 295 kts | 328° |
| 2026-05-07 14:42 | 45.21611 | 12.10861 | 9007 ft | 304 kts | 329° |
| 2026-05-07 14:42 | 45.23513 | 12.09415 | 7587 ft | 314 kts | 329° |
| 2026-05-07 14:42 | 45.25467 | 12.07969 | 6194 ft | 320 kts | 335° |
| 2026-05-07 14:42 | 45.27658 | 12.07375 | 4764 ft | 328 kts | 5° |
| 2026-05-07 14:43 | 45.29733 | 12.08481 | 4130 ft | 326 kts | 34° |
| 2026-05-07 14:43 | 45.31457 | 12.10450 | 3975 ft | 307 kts | 40° |
| 2026-05-07 14:43 | 45.32939 | 12.12358 | 3836 ft | 276 kts | 42° |
| 2026-05-07 14:43 | 45.34285 | 12.14168 | 3717 ft | 253 kts | 43° |
| 2026-05-07 14:44 | 45.35517 | 12.15826 | 3611 ft | 238 kts | 42° |
| 2026-05-07 14:44 | 45.36664 | 12.17347 | 3478 ft | 218 kts | 42° |
| 2026-05-07 14:44 | 45.37712 | 12.18720 | 3377 ft | 193 kts | 41° |
| 2026-05-07 14:44 | 45.38670 | 12.19962 | 3245 ft | 180 kts | 41° |
| 2026-05-07 14:45 | 45.39579 | 12.21133 | 3121 ft | 174 kts | 41° |
| 2026-05-07 14:45 | 45.40460 | 12.22261 | 3026 ft | 170 kts | 44° |
| 2026-05-07 14:45 | 45.41303 | 12.23344 | 2912 ft | 160 kts | 41° |
| 2026-05-07 14:45 | 45.42130 | 12.24404 | 2760 ft | 158 kts | 41° |
| 2026-05-07 14:46 | 45.42949 | 12.25459 | 2759 ft | 159 kts | 40° |
| 2026-05-07 14:46 | 45.43779 | 12.26504 | 2599 ft | 160 kts | 41° |
| 2026-05-07 14:46 | 45.44626 | 12.27544 | 2072 ft | 163 kts | 41° |
| 2026-05-07 14:46 | 45.45483 | 12.28613 | 1526 ft | 166 kts | 41° |
| 2026-05-07 14:47 | 45.46300 | 12.29718 | 1240 ft | 156 kts | 44° |
| 2026-05-07 14:47 | 45.47083 | 12.30793 | 1285 ft | 160 kts | 46° |
| 2026-05-07 14:47 | 45.47893 | 12.31923 | 1555 ft | 165 kts | 46° |
| 2026-05-07 14:47 | 45.48723 | 12.33146 | 1856 ft | 181 kts | 53° |
| 2026-05-07 14:48 | 45.49329 | 12.34796 | 1990 ft | 193 kts | 69° |
| 2026-05-07 14:48 | 45.49794 | 12.36595 | 2004 ft | 194 kts | 71° |
| 2026-05-07 14:48 | 45.50224 | 12.38423 | 2007 ft | 194 kts | 73° |
| 2026-05-07 14:48 | 45.50641 | 12.40230 | 2005 ft | 189 kts | 72° |
| 2026-05-07 14:49 | 45.51046 | 12.41978 | 2010 ft | 185 kts | 72° |
| 2026-05-07 14:49 | 45.51451 | 12.43688 | 2006 ft | 184 kts | 70° |
| 2026-05-07 14:49 | 45.52052 | 12.45289 | 2004 ft | 183 kts | 58° |
| 2026-05-07 14:49 | 45.52750 | 12.46812 | 2008 ft | 184 kts | 56° |
| 2026-05-07 14:50 | 45.53460 | 12.48331 | 2006 ft | 184 kts | 57° |
| 2026-05-07 14:50 | 45.54156 | 12.49830 | 2008 ft | 183 kts | 56° |
| 2026-05-07 14:50 | 45.54861 | 12.51339 | 2021 ft | 183 kts | 55° |
| 2026-05-07 14:50 | 45.55779 | 12.52517 | 2000 ft | 174 kts | 24° |
| 2026-05-07 14:51 | 45.56922 | 12.52807 | 2029 ft | 166 kts | 353° |
| 2026-05-07 14:51 | 45.57972 | 12.52232 | 2011 ft | 161 kts | 322° |
| 2026-05-07 14:51 | 45.58661 | 12.51016 | 2022 ft | 157 kts | 292° |
| 2026-05-07 14:51 | 45.58887 | 12.49522 | 2041 ft | 154 kts | 275° |
| 2026-05-07 14:52 | 45.59019 | 12.47978 | 2010 ft | 157 kts | 276° |
| 2026-05-07 14:52 | 45.58899 | 12.46447 | 2003 ft | 153 kts | 249° |
| 2026-05-07 14:52 | 45.58325 | 12.45234 | 1815 ft | 145 kts | 222° |
| 2026-05-07 14:52 | 45.57578 | 12.44286 | 1618 ft | 143 kts | 221° |
| 2026-05-07 14:53 | 45.56845 | 12.43345 | 1414 ft | 142 kts | 222° |
| 2026-05-07 14:53 | 45.56115 | 12.42405 | 1238 ft | 140 kts | 221° |
| 2026-05-07 14:53 | 45.55807 | 12.42011 | 1146 ft | 140 kts | 221° |
| 2026-05-07 14:53 | 45.55099 | 12.41091 | 989 ft | 147 kts | 220° |
| 2026-05-07 14:54 | 45.54324 | 12.40090 | 766 ft | 150 kts | 218° |
| 2026-05-07 14:54 | 45.53576 | 12.39119 | 597 ft | 144 kts | 219° |
| 2026-05-07 14:54 | 45.52841 | 12.38168 | 376 ft | 140 kts | 217° |
| 2026-05-07 14:54 | 45.52366 | 12.37559 | 239 ft | 137 kts | 218° |
| 2026-05-07 14:55 | 45.51663 | 12.36657 | 66 ft | 138 kts | 219° |
| 2026-05-07 14:55 | 45.50989 | 12.35804 | 16 ft | 114 kts | 220° |
| 2026-05-07 14:55 | 45.50496 | 12.35170 | 14 ft | 80 kts | 221° |
| 2026-05-07 14:55 | 45.50162 | 12.34738 | 16 ft | 44 kts | 223° |
| 2026-05-07 14:56 | 45.50055 | 12.34496 | 15 ft | 20 kts | 277° |
| 2026-05-07 14:56 | 45.50051 | 12.34300 | 16 ft | 20 kts | 266° |
| 2026-05-07 14:56 | 45.50042 | 12.34110 | 15 ft | 8 kts | 265° |
| 2026-05-07 14:56 | 45.50041 | 12.34090 | 15 ft | 6 kts | 265° |
| 2026-05-07 14:57 | 45.50071 | 12.34066 | 16 ft | 6 kts | 34° |
| 2026-05-07 14:57 | 45.50118 | 12.34128 | 16 ft | 12 kts | 38° |
| 2026-05-07 14:57 | 45.50155 | 12.34106 | 16 ft | 5 kts | 307° |
| 2026-05-07 14:57 | 45.50168 | 12.34086 | 16 ft | 4 kts | 313° |
| 2026-05-07 14:58 | 45.50180 | 12.34068 | 16 ft | 2 kts | 314° |